createdAt,value
2018-05-13T00:00:30.016Z,991.11
2018-05-13T00:01:40.023Z,991.1
2018-05-13T00:02:50.047Z,991.1
2018-05-13T00:04:00.064Z,991.07
2018-05-13T00:05:09.847Z,991.12
2018-05-13T00:06:20.224Z,991.12
2018-05-13T00:07:30.234Z,991.14
2018-05-13T00:08:40.257Z,991.11
2018-05-13T00:09:50.014Z,991.15
2018-05-13T00:11:00.028Z,991.14
2018-05-13T00:12:09.551Z,991.14
2018-05-13T00:13:19.301Z,991.18
2018-05-13T00:14:28.779Z,991.14
2018-05-13T00:15:38.531Z,991.17
2018-05-13T00:16:48.540Z,991.19
2018-05-13T00:17:58.546Z,991.15
2018-05-13T00:19:08.289Z,991.18
2018-05-13T00:20:18.308Z,991.19
2018-05-13T00:21:27.796Z,991.18
2018-05-13T00:22:37.543Z,991.24
2018-05-13T00:23:47.567Z,991.22
2018-05-13T00:24:57.309Z,991.23
2018-05-13T00:26:06.795Z,991.22
2018-05-13T00:27:16.813Z,991.28
2018-05-13T00:28:26.564Z,991.26
2018-05-13T00:29:35.772Z,991.29
2018-05-13T00:30:45.781Z,991.29
2018-05-13T00:31:55.528Z,991.31
2018-05-13T00:33:05.288Z,991.33
2018-05-13T00:34:15.051Z,991.33
2018-05-13T00:35:25.064Z,991.32
2018-05-13T00:36:35.072Z,991.33
2018-05-13T00:37:44.012Z,991.35
2018-05-13T00:38:54.024Z,991.36
2018-05-13T00:40:04.056Z,991.32
2018-05-13T00:41:13.905Z,991.36
2018-05-13T00:42:23.393Z,991.37
2018-05-13T00:43:33.397Z,991.35
2018-05-13T00:44:43.404Z,991.39
2018-05-13T00:45:53.410Z,991.39
2018-05-13T00:47:03.156Z,991.4
2018-05-13T00:48:12.901Z,991.44
2018-05-13T00:49:22.919Z,991.39
2018-05-13T00:50:33.006Z,991.44
2018-05-13T00:51:42.925Z,991.45
2018-05-13T00:52:52.138Z,991.45
2018-05-13T00:54:02.152Z,991.47
2018-05-13T00:55:11.090Z,991.44
2018-05-13T00:56:20.844Z,991.46
2018-05-13T00:57:30.922Z,991.4
2018-05-13T00:58:40.929Z,991.43
2018-05-13T00:59:50.136Z,991.41
2018-05-13T01:01:00.147Z,991.41
2018-05-13T01:02:10.167Z,991.41
2018-05-13T01:03:19.648Z,991.43
2018-05-13T01:04:29.658Z,991.43
2018-05-13T01:05:39.682Z,991.46
2018-05-13T01:06:49.423Z,991.48
2018-05-13T01:07:59.433Z,991.48
2018-05-13T01:09:08.907Z,991.45
2018-05-13T01:10:18.729Z,991.47
2018-05-13T01:11:28.759Z,991.47
2018-05-13T01:12:38.772Z,991.47
2018-05-13T01:13:48.777Z,991.51
2018-05-13T01:14:58.526Z,991.5
2018-05-13T01:16:08.269Z,991.51
2018-05-13T01:17:18.017Z,991.5
2018-05-13T01:18:28.033Z,991.53
2018-05-13T01:19:38.173Z,991.52
2018-05-13T01:20:47.640Z,991.51
2018-05-13T01:21:57.667Z,991.54
2018-05-13T01:23:07.687Z,991.53
2018-05-13T01:24:17.711Z,991.54
2018-05-13T01:25:27.723Z,991.54
2018-05-13T01:26:37.731Z,991.54
2018-05-13T01:27:47.749Z,991.53
2018-05-13T01:28:57.753Z,991.52
2018-05-13T01:30:07.763Z,991.48
2018-05-13T01:31:17.518Z,991.51
2018-05-13T01:32:27.275Z,991.52
2018-05-13T01:33:37.294Z,991.57
2018-05-13T01:34:47.110Z,991.56
2018-05-13T01:35:57.132Z,991.59
2018-05-13T01:37:06.360Z,991.59
2018-05-13T01:38:15.838Z,991.58
2018-05-13T01:39:25.902Z,991.6
2018-05-13T01:40:35.383Z,991.63
2018-05-13T01:41:45.187Z,991.69
2018-05-13T01:42:54.660Z,991.7
2018-05-13T01:44:04.405Z,991.68
2018-05-13T01:45:13.888Z,991.71
2018-05-13T01:46:23.637Z,991.7
2018-05-13T01:47:33.662Z,991.7
2018-05-13T01:48:43.181Z,991.67
2018-05-13T01:49:52.922Z,991.67
2018-05-13T01:51:02.672Z,991.68
2018-05-13T01:52:12.415Z,991.64
2018-05-13T01:53:22.172Z,991.61
2018-05-13T01:54:32.187Z,991.62
2018-05-13T01:55:42.208Z,991.64
2018-05-13T01:56:52.222Z,991.64
2018-05-13T01:58:02.237Z,991.64
2018-05-13T01:59:11.804Z,991.65
2018-05-13T02:00:21.817Z,991.67
2018-05-13T02:01:31.826Z,991.66
2018-05-13T02:02:42.089Z,991.68
2018-05-13T02:03:52.100Z,991.62
2018-05-13T02:05:01.846Z,991.64
2018-05-13T02:06:11.318Z,991.65
2018-05-13T02:07:21.064Z,991.62
2018-05-13T02:08:31.180Z,991.62
2018-05-13T02:09:41.201Z,991.62
2018-05-13T02:10:51.216Z,991.67
2018-05-13T02:12:01.226Z,991.68
2018-05-13T02:13:10.968Z,991.69
2018-05-13T02:14:20.443Z,991.68
2018-05-13T02:15:30.198Z,991.7
2018-05-13T02:16:40.207Z,991.68
2018-05-13T02:17:50.246Z,991.66
2018-05-13T02:18:59.997Z,991.62
2018-05-13T02:20:10.306Z,991.65
2018-05-13T02:21:20.055Z,991.64
2018-05-13T02:22:30.067Z,991.65
2018-05-13T02:23:39.815Z,991.62
2018-05-13T02:24:49.555Z,991.64
2018-05-13T02:25:59.312Z,991.65
2018-05-13T02:27:09.061Z,991.67
2018-05-13T02:28:18.821Z,991.69
2018-05-13T02:29:28.560Z,991.69
2018-05-13T02:30:38.569Z,991.67
2018-05-13T02:31:48.426Z,991.65
2018-05-13T02:32:57.919Z,991.69
2018-05-13T02:34:07.405Z,991.68
2018-05-13T02:35:17.420Z,991.68
2018-05-13T02:36:27.532Z,991.62
2018-05-13T02:37:37.590Z,991.62
2018-05-13T02:38:47.372Z,991.61
2018-05-13T02:39:56.869Z,991.56
2018-05-13T02:41:05.812Z,991.56
2018-05-13T02:42:15.039Z,991.56
2018-05-13T02:43:24.839Z,991.55
2018-05-13T02:44:34.692Z,991.55
2018-05-13T02:45:44.710Z,991.55
2018-05-13T02:46:54.732Z,991.49
2018-05-13T02:48:04.474Z,991.54
2018-05-13T02:49:13.947Z,991.58
2018-05-13T02:50:23.429Z,991.59
2018-05-13T02:51:33.562Z,991.57
2018-05-13T02:52:43.592Z,991.6
2018-05-13T02:53:53.353Z,991.57
2018-05-13T02:55:03.117Z,991.53
2018-05-13T02:56:12.874Z,991.49
2018-05-13T02:57:22.635Z,991.49
2018-05-13T02:58:32.679Z,991.58
2018-05-13T02:59:42.709Z,991.66
2018-05-13T03:03:25.059Z,991.58
2018-05-13T03:04:34.813Z,991.57
2018-05-13T03:05:44.292Z,991.58
2018-05-13T03:06:53.769Z,991.57
2018-05-13T03:08:03.539Z,991.56
2018-05-13T03:09:13.042Z,991.55
2018-05-13T03:10:22.790Z,991.53
2018-05-13T03:11:32.805Z,991.5
2018-05-13T03:12:42.555Z,991.52
2018-05-13T03:13:52.312Z,991.5
2018-05-13T03:15:01.789Z,991.45
2018-05-13T03:16:11.269Z,991.4
2018-05-13T03:17:21.020Z,991.35
2018-05-13T03:18:30.767Z,991.35
2018-05-13T03:19:40.775Z,991.39
2018-05-13T03:20:50.781Z,991.39
2018-05-13T03:22:00.790Z,991.38
2018-05-13T03:23:10.531Z,991.38
2018-05-13T03:24:20.572Z,991.39
2018-05-13T03:25:30.579Z,991.35
2018-05-13T03:26:40.664Z,991.34
2018-05-13T03:27:50.685Z,991.31
2018-05-13T03:29:00.697Z,991.33
2018-05-13T03:30:10.715Z,991.41
2018-05-13T03:31:20.732Z,991.5
2018-05-13T03:32:30.478Z,991.56
2018-05-13T03:33:40.491Z,991.55
2018-05-13T03:34:50.322Z,991.54
2018-05-13T03:36:00.061Z,991.55
2018-05-13T03:37:09.817Z,991.56
2018-05-13T03:38:19.040Z,991.6
2018-05-13T03:39:28.777Z,991.65
2018-05-13T03:40:38.781Z,991.64
2018-05-13T03:41:48.795Z,991.65
2018-05-13T03:42:58.815Z,991.7
2018-05-13T03:44:08.566Z,991.75
2018-05-13T03:45:18.317Z,991.81
2018-05-13T03:46:28.062Z,991.82
2018-05-13T03:47:37.806Z,991.71
2018-05-13T03:48:47.282Z,991.68
2018-05-13T03:49:57.297Z,991.72
2018-05-13T03:51:07.043Z,991.69
2018-05-13T03:52:16.525Z,991.71
2018-05-13T03:53:26.008Z,991.74
2018-05-13T03:54:35.218Z,991.73
2018-05-13T03:55:45.074Z,991.74
2018-05-13T03:56:55.097Z,991.74
2018-05-13T03:58:04.924Z,991.71
2018-05-13T03:59:14.398Z,991.7
2018-05-13T04:00:24.145Z,991.7
2018-05-13T04:01:33.893Z,991.69
2018-05-13T04:02:43.629Z,991.66
2018-05-13T04:03:53.638Z,991.64
2018-05-13T04:05:03.390Z,991.62
2018-05-13T04:06:13.399Z,991.61
2018-05-13T04:07:23.223Z,991.61
2018-05-13T04:08:33.247Z,991.59
2018-05-13T04:09:43.263Z,991.57
2018-05-13T04:10:53.289Z,991.53
2018-05-13T04:12:03.299Z,991.45
2018-05-13T04:13:13.305Z,991.44
2018-05-13T04:14:22.520Z,991.43
2018-05-13T04:15:32.535Z,991.41
2018-05-13T04:16:42.280Z,991.45
2018-05-13T04:17:52.290Z,991.46
2018-05-13T04:19:01.766Z,991.52
2018-05-13T04:20:11.512Z,991.51
2018-05-13T04:21:20.720Z,991.55
2018-05-13T04:22:30.467Z,991.58
2018-05-13T04:23:40.479Z,991.57
2018-05-13T04:24:50.588Z,991.53
2018-05-13T04:26:00.603Z,991.51
2018-05-13T04:27:10.081Z,991.48
2018-05-13T04:28:19.827Z,991.52
2018-05-13T04:29:29.840Z,991.51
2018-05-13T04:30:39.601Z,991.51
2018-05-13T04:31:49.073Z,991.44
2018-05-13T04:32:59.084Z,991.44
2018-05-13T04:34:08.834Z,991.42
2018-05-13T04:35:18.848Z,991.41
2018-05-13T04:36:28.331Z,991.48
2018-05-13T04:37:38.077Z,991.45
2018-05-13T04:38:48.097Z,991.42
2018-05-13T04:39:57.577Z,991.45
2018-05-13T04:41:07.327Z,991.51
2018-05-13T04:42:17.343Z,991.52
2018-05-13T04:43:27.357Z,991.55
2018-05-13T04:44:37.373Z,991.58
2018-05-13T04:45:47.120Z,991.59
2018-05-13T04:46:56.596Z,991.55
2018-05-13T04:48:06.345Z,991.54
2018-05-13T04:49:16.363Z,991.54
2018-05-13T04:50:25.844Z,991.51
2018-05-13T04:51:35.861Z,991.52
2018-05-13T04:52:45.878Z,991.52
2018-05-13T04:53:55.884Z,991.51
2018-05-13T04:55:05.094Z,991.54
2018-05-13T04:56:14.838Z,991.52
2018-05-13T04:57:24.853Z,991.56
2018-05-13T04:58:34.873Z,991.57
2018-05-13T04:59:44.894Z,991.58
2018-05-13T05:00:54.642Z,991.6
2018-05-13T05:02:04.422Z,991.63
2018-05-13T05:03:14.434Z,991.63
2018-05-13T05:04:23.929Z,991.64
2018-05-13T05:05:33.687Z,991.67
2018-05-13T05:06:43.701Z,991.75
2018-05-13T05:07:53.458Z,991.77
2018-05-13T05:09:03.048Z,991.78
2018-05-13T05:10:12.694Z,991.78
2018-05-13T05:11:22.758Z,991.87
2018-05-13T05:12:32.770Z,991.85
2018-05-13T05:13:42.519Z,991.84
2018-05-13T05:14:52.265Z,991.77
2018-05-13T05:16:02.287Z,991.7
2018-05-13T05:17:12.038Z,991.69
2018-05-13T05:18:21.521Z,991.69
2018-05-13T05:19:31.000Z,991.67
2018-05-13T05:20:41.010Z,991.62
2018-05-13T05:21:51.018Z,991.65
2018-05-13T05:23:00.764Z,991.69
2018-05-13T05:24:10.776Z,991.66
2018-05-13T05:25:20.789Z,991.67
2018-05-13T05:26:30.805Z,991.64
2018-05-13T05:27:40.809Z,991.75
2018-05-13T05:28:50.763Z,991.83
2018-05-13T05:30:00.773Z,991.82
2018-05-13T05:31:10.249Z,991.8
2018-05-13T05:32:20.267Z,991.81
2018-05-13T05:33:30.277Z,991.8
2018-05-13T05:34:40.030Z,991.8
2018-05-13T05:35:50.083Z,991.77
2018-05-13T05:37:00.324Z,991.79
2018-05-13T05:38:10.072Z,991.83
2018-05-13T05:39:19.288Z,991.76
2018-05-13T05:40:29.042Z,991.75
2018-05-13T05:41:39.062Z,991.78
2018-05-13T05:42:49.080Z,991.82
2018-05-13T05:43:59.120Z,991.81
2018-05-13T05:45:09.127Z,991.79
2018-05-13T05:46:18.336Z,991.79
2018-05-13T05:47:28.352Z,991.77
2018-05-13T05:48:38.183Z,991.75
2018-05-13T05:49:48.191Z,991.77
2018-05-13T05:50:57.401Z,991.76
2018-05-13T05:52:07.160Z,991.76
2018-05-13T05:53:16.637Z,991.72
2018-05-13T05:54:26.384Z,991.72
2018-05-13T05:55:36.485Z,991.77
2018-05-13T05:56:46.245Z,991.8
2018-05-13T05:57:56.271Z,991.78
2018-05-13T05:59:06.024Z,991.78
2018-05-13T06:00:16.045Z,991.79
2018-05-13T06:01:25.520Z,991.8
2018-05-13T06:02:35.297Z,991.81
2018-05-13T06:03:45.318Z,991.77
2018-05-13T06:04:55.065Z,991.76
2018-05-13T06:06:05.083Z,991.78
2018-05-13T06:07:15.092Z,991.81
2018-05-13T06:08:25.106Z,991.79
2018-05-13T06:09:35.197Z,991.84
2018-05-13T06:10:45.207Z,991.76
2018-05-13T06:11:54.691Z,991.79
2018-05-13T06:13:04.702Z,991.79
2018-05-13T06:14:14.443Z,991.83
2018-05-13T06:15:24.188Z,991.86
2018-05-13T06:16:33.668Z,991.82
2018-05-13T06:17:43.695Z,991.83
2018-05-13T06:18:53.707Z,991.81
2018-05-13T06:20:03.722Z,991.87
2018-05-13T06:21:13.833Z,991.91
2018-05-13T06:22:23.847Z,991.91
2018-05-13T06:23:33.870Z,991.91
2018-05-13T06:24:43.619Z,991.86
2018-05-13T06:25:53.632Z,991.85
2018-05-13T06:27:03.647Z,991.84
2018-05-13T06:28:13.667Z,991.83
2018-05-13T06:29:23.409Z,991.91
2018-05-13T06:30:32.894Z,991.92
2018-05-13T06:31:42.913Z,991.93
2018-05-13T06:32:53.154Z,991.94
2018-05-13T06:34:02.896Z,991.91
2018-05-13T06:35:12.913Z,991.91
2018-05-13T06:36:22.922Z,991.87
2018-05-13T06:37:32.941Z,991.91
2018-05-13T06:38:42.684Z,991.9
2018-05-13T06:39:52.701Z,991.84
2018-05-13T06:41:02.445Z,991.84
2018-05-13T06:42:12.464Z,991.83
2018-05-13T06:43:22.206Z,991.82
2018-05-13T06:44:32.225Z,991.82
2018-05-13T06:45:42.242Z,991.81
2018-05-13T06:46:51.721Z,991.79
2018-05-13T06:48:01.745Z,991.78
2018-05-13T06:49:11.224Z,991.79
2018-05-13T06:50:21.023Z,991.79
2018-05-13T06:51:30.795Z,991.8
2018-05-13T06:52:40.241Z,991.78
2018-05-13T06:53:50.258Z,991.7
2018-05-13T06:55:00.070Z,991.72
2018-05-13T06:56:10.096Z,991.71
2018-05-13T06:57:19.673Z,991.72
2018-05-13T06:58:29.652Z,991.69
2018-05-13T06:59:39.691Z,991.64
2018-05-13T07:00:49.699Z,991.68
2018-05-13T07:01:59.452Z,991.67
2018-05-13T07:03:09.481Z,991.74
2018-05-13T07:04:19.233Z,991.76
2018-05-13T07:05:29.247Z,991.76
2018-05-13T07:06:38.993Z,991.72
2018-05-13T07:07:48.737Z,991.72
2018-05-13T07:08:57.948Z,991.72
2018-05-13T07:10:07.691Z,991.64
2018-05-13T07:11:17.524Z,991.65
2018-05-13T07:12:27.552Z,991.64
2018-05-13T07:13:37.305Z,991.73
2018-05-13T07:14:47.327Z,991.76
2018-05-13T07:15:57.351Z,991.81
2018-05-13T07:17:06.855Z,991.78
2018-05-13T07:18:16.605Z,991.76
2018-05-13T07:19:26.914Z,991.79
2018-05-13T07:20:36.661Z,991.72
2018-05-13T07:21:46.739Z,991.73
2018-05-13T07:22:56.789Z,991.72
2018-05-13T07:24:06.273Z,991.73
2018-05-13T07:25:15.747Z,991.7
2018-05-13T07:26:25.501Z,991.7
2018-05-13T07:27:35.522Z,991.7
2018-05-13T07:28:45.547Z,991.71
2018-05-13T07:29:55.297Z,991.68
2018-05-13T07:31:04.237Z,991.7
2018-05-13T07:32:13.450Z,991.72
2018-05-13T07:33:23.199Z,991.74
2018-05-13T07:34:32.689Z,991.72
2018-05-13T07:35:42.702Z,991.67
2018-05-13T07:36:52.461Z,991.73
2018-05-13T07:38:02.477Z,991.72
2018-05-13T07:39:12.222Z,991.75
2018-05-13T07:40:22.233Z,991.79
2018-05-13T07:41:32.244Z,991.81
2018-05-13T07:42:42.258Z,991.81
2018-05-13T07:43:52.014Z,991.83
2018-05-13T07:45:01.492Z,991.81
2018-05-13T07:46:11.505Z,991.78
2018-05-13T07:47:21.587Z,991.79
2018-05-13T07:48:31.608Z,991.76
2018-05-13T07:49:41.354Z,991.72
2018-05-13T07:50:50.878Z,991.69
2018-05-13T07:52:00.925Z,991.72
2018-05-13T07:53:10.674Z,991.65
2018-05-13T07:54:20.421Z,991.59
2018-05-13T07:55:30.171Z,991.64
2018-05-13T07:56:39.927Z,991.62
2018-05-13T07:57:49.687Z,991.61
2018-05-13T07:59:00.016Z,991.7
2018-05-13T08:00:09.772Z,991.7
2018-05-13T08:01:19.787Z,991.73
2018-05-13T08:02:29.806Z,991.72
2018-05-13T08:03:39.020Z,991.73
2018-05-13T08:04:49.043Z,991.74
2018-05-13T08:05:59.058Z,991.72
2018-05-13T08:07:08.962Z,991.76
2018-05-13T08:08:18.981Z,991.77
2018-05-13T08:09:29.013Z,991.74
2018-05-13T08:10:39.044Z,991.8
2018-05-13T08:11:49.152Z,991.76
2018-05-13T08:12:59.162Z,991.78
2018-05-13T08:14:09.024Z,991.8
2018-05-13T08:15:19.202Z,991.8
2018-05-13T08:16:28.679Z,991.76
2018-05-13T08:17:38.692Z,991.79
2018-05-13T08:18:48.712Z,991.79
2018-05-13T08:19:58.730Z,991.76
2018-05-13T08:21:07.944Z,991.78
2018-05-13T08:22:17.953Z,991.75
2018-05-13T08:23:27.701Z,991.76
2018-05-13T08:24:37.447Z,991.8
2018-05-13T08:25:47.196Z,991.73
2018-05-13T08:26:57.210Z,991.75
2018-05-13T08:28:06.958Z,991.72
2018-05-13T08:29:16.980Z,991.77
2018-05-13T08:30:26.998Z,991.77
2018-05-13T08:31:37.099Z,991.74
2018-05-13T08:32:46.843Z,991.74
2018-05-13T08:33:56.330Z,991.75
2018-05-13T08:35:06.088Z,991.76
2018-05-13T08:36:15.831Z,991.74
2018-05-13T08:37:25.319Z,991.69
2018-05-13T08:38:35.351Z,991.73
2018-05-13T08:39:45.371Z,991.69
2018-05-13T08:40:55.384Z,991.75
2018-05-13T08:42:05.144Z,991.71
2018-05-13T08:43:14.895Z,991.76
2018-05-13T08:44:24.902Z,991.79
2018-05-13T08:45:34.118Z,991.79
2018-05-13T08:46:44.138Z,991.81
2018-05-13T08:47:53.888Z,991.76
2018-05-13T08:49:03.638Z,991.76
2018-05-13T08:50:13.651Z,991.79
2018-05-13T08:51:23.476Z,991.75
2018-05-13T08:52:33.486Z,991.79
2018-05-13T08:53:43.237Z,991.79
2018-05-13T08:54:52.988Z,991.8
2018-05-13T08:56:02.742Z,991.78
2018-05-13T08:57:12.764Z,991.76
2018-05-13T08:58:22.520Z,991.79
2018-05-13T08:59:32.616Z,991.7
2018-05-13T09:00:42.752Z,991.72
2018-05-13T09:01:52.508Z,991.77
2018-05-13T09:03:01.992Z,991.76
2018-05-13T09:04:11.207Z,991.77
2018-05-13T09:05:21.223Z,991.73
2018-05-13T09:06:31.253Z,991.72
2018-05-13T09:07:41.001Z,991.69
2018-05-13T09:08:51.023Z,991.73
2018-05-13T09:10:00.885Z,991.72
2018-05-13T09:11:10.903Z,991.71
2018-05-13T09:12:20.659Z,991.75
2018-05-13T09:13:30.676Z,991.73
2018-05-13T09:14:40.701Z,991.73
2018-05-13T09:15:50.742Z,991.74
2018-05-13T09:17:00.756Z,991.75
2018-05-13T09:18:10.793Z,991.68
2018-05-13T09:19:20.547Z,991.64
2018-05-13T09:20:30.588Z,991.64
2018-05-13T09:21:41.110Z,991.61
2018-05-13T09:22:51.147Z,991.62
2018-05-13T09:24:00.899Z,991.63
2018-05-13T09:25:10.384Z,991.62
2018-05-13T09:26:20.142Z,991.63
2018-05-13T09:27:29.684Z,991.64
2018-05-13T09:28:39.163Z,991.63
2018-05-13T09:29:49.178Z,991.64
2018-05-13T09:30:58.929Z,991.66
2018-05-13T09:32:08.984Z,991.7
2018-05-13T09:33:19.004Z,991.66
2018-05-13T09:34:28.763Z,991.67
2018-05-13T09:35:38.783Z,991.66
2018-05-13T09:36:48.800Z,991.66
2018-05-13T09:37:58.290Z,991.68
2018-05-13T09:39:08.050Z,991.65
2018-05-13T09:40:17.863Z,991.65
2018-05-13T09:41:27.614Z,991.69
2018-05-13T09:42:37.360Z,991.68
2018-05-13T09:43:47.110Z,991.68
2018-05-13T09:44:56.592Z,991.68
2018-05-13T09:46:06.608Z,991.68
2018-05-13T09:47:16.091Z,991.7
2018-05-13T09:48:26.117Z,991.7
2018-05-13T09:49:35.596Z,991.72
2018-05-13T09:50:45.348Z,991.68
2018-05-13T09:51:54.833Z,991.71
2018-05-13T09:53:04.582Z,991.71
2018-05-13T09:54:14.333Z,991.66
2018-05-13T09:55:24.080Z,991.65
2018-05-13T09:56:34.104Z,991.6
2018-05-13T09:57:44.221Z,991.61
2018-05-13T09:58:53.984Z,991.6
2018-05-13T10:00:04.004Z,991.6
2018-05-13T10:01:13.763Z,991.54
2018-05-13T10:02:23.840Z,991.53
2018-05-13T10:03:33.673Z,991.52
2018-05-13T10:04:43.688Z,991.46
2018-05-13T10:05:53.701Z,991.43
2018-05-13T10:07:03.451Z,991.4
2018-05-13T10:08:12.936Z,991.43
2018-05-13T10:09:22.954Z,991.39
2018-05-13T10:10:32.611Z,991.41
2018-05-13T10:11:42.098Z,991.4
2018-05-13T10:12:52.118Z,991.37
2018-05-13T10:14:01.608Z,991.4
2018-05-13T10:15:11.358Z,991.41
2018-05-13T10:16:21.376Z,991.42
2018-05-13T10:17:31.156Z,991.42
2018-05-13T10:18:40.923Z,991.4
2018-05-13T10:19:50.144Z,991.39
2018-05-13T10:20:59.895Z,991.38
2018-05-13T10:22:09.912Z,991.4
2018-05-13T10:23:19.935Z,991.33
2018-05-13T10:24:29.697Z,991.33
2018-05-13T10:25:39.464Z,991.34
2018-05-13T10:26:49.487Z,991.36
2018-05-13T10:27:59.522Z,991.32
2018-05-13T10:29:09.349Z,991.3
2018-05-13T10:30:19.102Z,991.31
2018-05-13T10:31:28.588Z,991.29
2018-05-13T10:32:38.344Z,991.29
2018-05-13T10:33:48.370Z,991.24
2018-05-13T10:34:57.860Z,991.27
2018-05-13T10:36:07.882Z,991.2
2018-05-13T10:37:17.930Z,991.2
2018-05-13T10:38:27.685Z,991.2
2018-05-13T10:39:37.174Z,991.14
2018-05-13T10:40:46.399Z,991.1
2018-05-13T10:41:56.151Z,991.08
2018-05-13T10:43:05.907Z,991.08
2018-05-13T10:44:15.657Z,991.05
2018-05-13T10:45:25.684Z,991.1
2018-05-13T10:46:35.790Z,991.1
2018-05-13T10:47:45.821Z,991.14
2018-05-13T10:48:55.849Z,991.1
2018-05-13T10:50:05.606Z,991.08
2018-05-13T10:51:15.364Z,991.07
2018-05-13T10:52:25.121Z,991.08
2018-05-13T10:53:35.148Z,990.99
2018-05-13T10:54:45.167Z,991.02
2018-05-13T10:55:55.185Z,990.99
2018-05-13T10:57:04.668Z,990.99
2018-05-13T10:58:14.159Z,990.93
2018-05-13T10:59:24.180Z,990.94
2018-05-13T11:00:33.403Z,990.94
2018-05-13T11:01:43.421Z,990.92
2018-05-13T11:02:53.177Z,990.91
2018-05-13T11:04:03.197Z,990.92
2018-05-13T11:05:12.960Z,990.93
2018-05-13T11:06:23.029Z,990.98
2018-05-13T11:07:33.046Z,990.97
2018-05-13T11:08:43.067Z,991.06
2018-05-13T11:09:52.830Z,991.03
2018-05-13T11:11:02.596Z,991.04
2018-05-13T11:12:12.615Z,991.09
2018-05-13T11:13:21.830Z,991.14
2018-05-13T11:14:31.856Z,991.14
2018-05-13T11:15:41.878Z,991.11
2018-05-13T11:16:51.902Z,991.1
2018-05-13T11:18:01.653Z,991.1
2018-05-13T11:19:10.874Z,991.1
2018-05-13T11:20:20.368Z,991.14
2018-05-13T11:21:29.595Z,991.12
2018-05-13T11:22:39.353Z,991.1
2018-05-13T11:23:49.384Z,991.1
2018-05-13T11:24:59.418Z,991.12
2018-05-13T11:26:08.907Z,991.13
2018-05-13T11:27:18.928Z,991.09
2018-05-13T11:28:28.684Z,991.2
2018-05-13T11:29:38.709Z,991.17
2018-05-13T11:30:48.462Z,991.23
2018-05-13T11:31:58.216Z,991.17
2018-05-13T11:33:08.237Z,991.1
2018-05-13T11:34:17.992Z,991.04
2018-05-13T11:35:27.579Z,991.04
2018-05-13T11:36:37.611Z,991.05
2018-05-13T11:37:47.644Z,991
2018-05-13T11:38:57.399Z,990.99
2018-05-13T11:40:06.884Z,991.01
2018-05-13T11:41:16.372Z,991.09
2018-05-13T11:42:26.127Z,991.3
2018-05-13T11:43:36.157Z,991.21
2018-05-13T11:44:46.179Z,991.25
2018-05-13T11:45:56.295Z,991.21
2018-05-13T11:47:06.048Z,991.06
2018-05-13T11:48:15.811Z,991.15
2018-05-13T11:49:25.298Z,991.07
2018-05-13T11:50:35.321Z,991.18
2018-05-13T11:51:45.090Z,991.17
2018-05-13T11:52:55.118Z,991.12
2018-05-13T11:54:05.140Z,991.07
2018-05-13T11:55:14.909Z,991.1
2018-05-13T11:56:24.722Z,990.94
2018-05-13T11:57:34.839Z,991.07
2018-05-13T11:58:44.867Z,991.12
2018-05-13T11:59:54.630Z,991.1
2018-05-13T12:01:04.127Z,990.88
2018-05-13T12:02:14.018Z,991.06
2018-05-13T12:03:23.780Z,990.81
2018-05-13T12:04:33.541Z,990.93
2018-05-13T12:05:43.298Z,991.18
2018-05-13T12:06:52.791Z,991.13
2018-05-13T12:08:02.552Z,990.88
2018-05-13T12:09:12.582Z,991.18
2018-05-13T12:10:22.073Z,990.94
2018-05-13T12:11:32.103Z,990.9
2018-05-13T12:12:41.868Z,990.92
2018-05-13T12:13:51.639Z,990.93
2018-05-13T12:15:01.745Z,990.92
2018-05-13T12:16:11.699Z,990.89
2018-05-13T12:17:21.478Z,990.95
2018-05-13T12:18:31.240Z,990.91
2018-05-13T12:19:41.270Z,990.93
2018-05-13T12:20:51.031Z,990.95
2018-05-13T12:22:01.252Z,990.97
2018-05-13T12:23:11.278Z,990.96
2018-05-13T12:24:21.037Z,990.92
2018-05-13T12:25:31.074Z,990.96
2018-05-13T12:26:40.845Z,990.95
2018-05-13T12:27:50.872Z,990.94
2018-05-13T12:29:01.045Z,990.95
2018-05-13T12:30:10.977Z,991
2018-05-13T12:31:20.740Z,991.01
2018-05-13T12:32:30.764Z,991.02
2018-05-13T12:33:39.980Z,991.04
2018-05-13T12:34:50.023Z,991.01
2018-05-13T12:36:00.132Z,991
2018-05-13T12:37:09.624Z,991.03
2018-05-13T12:38:19.382Z,991.06
2018-05-13T12:39:29.142Z,990.99
2018-05-13T12:40:39.165Z,990.96
2018-05-13T12:41:48.923Z,990.99
2018-05-13T12:42:58.959Z,990.99
2018-05-13T12:44:08.459Z,991
2018-05-13T12:45:18.222Z,991.04
2018-05-13T12:46:27.981Z,991.06
2018-05-13T12:47:37.738Z,991.03
2018-05-13T12:48:47.501Z,991.03
2018-05-13T12:49:57.572Z,990.98
2018-05-13T12:51:07.683Z,990.96
2018-05-13T12:52:17.708Z,990.95
2018-05-13T12:53:27.204Z,990.96
2018-05-13T12:54:36.960Z,991.01
2018-05-13T12:55:46.985Z,991.28
2018-05-13T12:56:57.011Z,991.08
2018-05-13T12:58:06.498Z,991.24
2018-05-13T12:59:16.527Z,990.98
2018-05-13T13:00:26.555Z,991
2018-05-13T13:01:36.314Z,991.37
2018-05-13T13:02:45.852Z,991.07
2018-05-13T13:03:55.412Z,990.98
2018-05-13T13:05:05.177Z,990.93
2018-05-13T13:06:15.244Z,991.05
2018-05-13T13:07:25.344Z,991.28
2018-05-13T13:08:35.421Z,990.92
2018-05-13T13:09:45.457Z,990.99
2018-05-13T13:10:55.481Z,990.96
2018-05-13T13:12:04.977Z,990.95
2018-05-13T13:13:15.002Z,990.88
2018-05-13T13:14:24.761Z,990.87
2018-05-13T13:15:34.262Z,990.87
2018-05-13T13:16:44.016Z,990.86
2018-05-13T13:17:53.509Z,990.8
2018-05-13T13:19:03.533Z,990.82
2018-05-13T13:20:13.302Z,990.82
2018-05-13T13:21:23.337Z,990.81
2018-05-13T13:22:33.363Z,990.84
2018-05-13T13:23:43.128Z,990.82
2018-05-13T13:24:52.620Z,990.86
2018-05-13T13:26:02.194Z,990.85
2018-05-13T13:27:12.240Z,990.86
2018-05-13T13:28:22.338Z,990.87
2018-05-13T13:29:32.369Z,990.86
2018-05-13T13:30:41.897Z,990.85
2018-05-13T13:31:52.320Z,990.85
2018-05-13T13:33:02.080Z,990.8
2018-05-13T13:34:11.308Z,990.78
2018-05-13T13:35:21.070Z,990.77
2018-05-13T13:36:30.651Z,990.76
2018-05-13T13:37:40.999Z,990.76
2018-05-13T13:38:50.501Z,990.74
2018-05-13T13:40:00.528Z,990.78
2018-05-13T13:41:10.287Z,991.32
2018-05-13T13:42:20.335Z,991.35
2018-05-13T13:43:30.088Z,991.27
2018-05-13T13:44:39.589Z,991.22
2018-05-13T13:45:49.612Z,991.21
2018-05-13T13:46:59.640Z,991.1
2018-05-13T13:48:09.396Z,990.77
2018-05-13T13:49:19.153Z,991.24
2018-05-13T13:50:28.909Z,990.88
2018-05-13T13:51:38.665Z,991.21
2018-05-13T13:52:48.421Z,991.13
2018-05-13T13:53:58.187Z,991.15
2018-05-13T13:55:07.956Z,991.18
2018-05-13T13:56:17.454Z,991.18
2018-05-13T13:57:27.215Z,990.69
2018-05-13T13:58:36.975Z,991.29
2018-05-13T13:59:46.747Z,991.3
2018-05-13T14:00:56.791Z,991.37
2018-05-13T14:02:06.287Z,991.45
2018-05-13T14:03:16.049Z,991.13
2018-05-13T14:04:25.815Z,991.25
2018-05-13T14:05:35.578Z,990.51
2018-05-13T14:06:45.709Z,990.58
2018-05-13T14:07:55.473Z,991.67
2018-05-13T14:09:05.278Z,991.64
2018-05-13T14:10:15.315Z,991.63
2018-05-13T14:11:25.347Z,991.67
2018-05-13T14:12:35.111Z,991.61
2018-05-13T14:13:44.605Z,991.53
2018-05-13T14:14:54.371Z,991.59
2018-05-13T14:16:03.864Z,991.5
2018-05-13T14:17:13.894Z,991.49
2018-05-13T14:18:23.665Z,991.53
2018-05-13T14:19:33.429Z,991.55
2018-05-13T14:20:43.466Z,991.5
2018-05-13T14:21:53.504Z,991.53
2018-05-13T14:23:03.276Z,991.6
2018-05-13T14:24:12.770Z,991.6
2018-05-13T14:25:22.537Z,991.41
2018-05-13T14:26:32.311Z,991.52
2018-05-13T14:27:42.343Z,991.5
2018-05-13T14:28:52.121Z,991.55
2018-05-13T14:30:01.886Z,990.35
2018-05-13T14:31:11.661Z,991.58
2018-05-13T14:32:21.160Z,991.44
2018-05-13T14:33:30.939Z,990.31
2018-05-13T14:34:40.446Z,991.29
2018-05-13T14:35:49.681Z,990.34
2018-05-13T14:36:59.186Z,990.26